createdAt,value
2022-08-25T07:52:55.242Z,5.80
2022-08-25T07:55:27.158Z,5.93
2022-08-25T07:57:57.709Z,6.55
2022-08-25T08:00:30.354Z,6.15
2022-08-25T08:03:00.165Z,7.38
2022-08-25T08:05:34.098Z,11.25
2022-08-25T08:08:06.045Z,6.93
2022-08-25T08:10:54.123Z,6.03
2022-08-25T08:13:26.713Z,7.20
2022-08-25T08:15:57.443Z,4.53
2022-08-25T08:18:26.762Z,6.82
2022-08-25T08:20:55.982Z,7.05
2022-08-25T08:23:28.613Z,8.68
2022-08-25T08:25:58.413Z,7.00
2022-08-25T08:28:28.696Z,9.55
2022-08-25T08:30:57.934Z,5.05
2022-08-25T08:33:27.767Z,5.82
2022-08-25T08:36:04.934Z,5.30
2022-08-25T08:38:36.675Z,4.03
2022-08-25T08:41:54.229Z,7.05
2022-08-25T08:44:32.507Z,4.32
2022-08-25T08:47:12.076Z,9.50
2022-08-25T08:49:51.440Z,8.80
2022-08-25T08:52:26.324Z,4.32
2022-08-25T08:55:07.736Z,8.15
2022-08-25T08:57:45.443Z,5.97
2022-08-25T09:00:15.649Z,5.90
2022-08-25T09:02:52.843Z,5.97
2022-08-25T09:05:24.829Z,5.88
2022-08-25T09:07:58.624Z,4.30
2022-08-25T09:10:40.611Z,5.68
2022-08-25T09:13:22.002Z,6.18
2022-08-25T09:16:31.899Z,4.28
2022-08-25T09:19:21.368Z,10.63
2022-08-25T09:21:59.784Z,4.57
2022-08-25T09:24:43.350Z,6.47
2022-08-25T09:27:26.378Z,7.38
2022-08-25T09:30:10.155Z,6.80
2022-08-25T09:32:48.846Z,5.38
2022-08-25T09:35:24.779Z,5.72
2022-08-25T09:38:01.915Z,4.07
2022-08-25T09:40:34.287Z,7.20
2022-08-25T09:43:11.246Z,5.72
2022-08-25T09:45:44.221Z,5.65
2022-08-25T09:48:24.880Z,11.15
2022-08-25T09:50:59.693Z,5.90
2022-08-25T09:53:33.847Z,8.30
2022-08-25T09:56:07.258Z,6.03
2022-08-25T09:58:37.946Z,9.15
2022-08-25T10:01:14.931Z,7.60
2022-08-25T10:04:06.838Z,9.68
2022-08-25T10:06:49.283Z,8.55
2022-08-25T10:09:29.845Z,5.90
2022-08-25T10:12:01.554Z,5.13
2022-08-25T10:14:39.304Z,4.45
2022-08-25T10:17:17.321Z,9.52
2022-08-25T10:19:46.501Z,4.03
2022-08-25T10:22:26.280Z,5.03
2022-08-25T10:24:56.029Z,6.15
2022-08-25T10:27:36.125Z,7.15
2022-08-25T10:30:19.643Z,6.95
2022-08-25T10:33:11.516Z,6.00
2022-08-25T10:35:54.351Z,8.75
2022-08-25T10:38:38.121Z,6.32
2022-08-25T10:41:24.343Z,7.53
2022-08-25T10:44:02.949Z,7.55
2022-08-25T10:46:42.535Z,6.63
2022-08-25T10:49:20.272Z,6.72
2022-08-25T10:51:58.447Z,3.13
2022-08-25T10:54:44.022Z,4.43
2022-08-25T10:57:22.695Z,6.35
2022-08-25T11:00:05.304Z,7.28
2022-08-25T11:03:06.603Z,8.02
2022-08-25T11:05:43.404Z,6.45
2022-08-25T11:08:21.872Z,6.78
2022-08-25T11:10:55.824Z,11.68
2022-08-25T11:13:33.409Z,10.57
2022-08-25T11:16:16.973Z,11.82
2022-08-25T11:18:58.804Z,7.25
2022-08-25T11:21:35.902Z,6.55
2022-08-25T11:24:12.531Z,7.38
2022-08-25T11:26:55.199Z,12.27
2022-08-25T11:29:28.617Z,7.68
2022-08-25T11:32:02.033Z,4.82
2022-08-25T11:34:37.107Z,11.95
2022-08-25T11:37:23.625Z,6.28
2022-08-25T11:40:19.010Z,8.23
2022-08-25T11:43:03.485Z,4.75
2022-08-25T11:46:03.401Z,4.63
2022-08-25T11:48:43.615Z,4.10
2022-08-25T11:51:31.528Z,4.25
2022-08-25T11:54:21.993Z,7.30
2022-08-25T11:56:59.276Z,4.90
2022-08-25T12:00:12.679Z,6.35
2022-08-25T12:02:44.550Z,6.75
2022-08-25T12:06:15.175Z,8.52
2022-08-25T12:09:10.784Z,11.45
2022-08-25T12:11:51.677Z,13.38
2022-08-25T12:14:49.164Z,11.90
2022-08-25T12:17:39.367Z,9.73
2022-08-25T12:20:11.841Z,9.27
2022-08-25T12:22:55.872Z,7.97
2022-08-25T12:25:46.637Z,18.02
2022-08-25T12:28:39.519Z,12.07
2022-08-25T12:31:22.773Z,8.65
2022-08-25T12:34:09.044Z,9.75
2022-08-25T12:36:41.864Z,10.43
2022-08-25T12:39:24.390Z,12.82
2022-08-25T12:41:58.026Z,11.73
2022-08-25T12:44:43.594Z,12.13
2022-08-25T12:47:32.672Z,9.95
2022-08-25T12:50:40.665Z,13.20
2022-08-25T12:53:17.316Z,15.20
2022-08-25T12:55:53.384Z,19.60
2022-08-25T12:58:38.658Z,16.30
2022-08-25T13:01:35.912Z,13.93
2022-08-25T13:04:50.582Z,11.23
2022-08-25T13:10:18.438Z,17.20
2022-08-25T13:18:15.948Z,18.48
2022-08-25T13:20:46.323Z,19.95
2022-08-25T13:23:21.761Z,15.18
2022-08-25T13:25:52.909Z,24.52
2022-08-25T13:28:28.940Z,20.13
2022-08-25T13:31:02.054Z,22.30
2022-08-25T13:33:33.668Z,24.33
2022-08-25T13:36:20.973Z,22.83
2022-08-25T13:38:51.906Z,19.73
2022-08-25T13:41:29.407Z,22.50
2022-08-25T13:44:04.633Z,25.33
2022-08-25T13:46:35.633Z,21.23
2022-08-25T13:49:08.739Z,27.58
2022-08-25T13:51:40.136Z,26.13
2022-08-25T13:54:26.879Z,20.40
2022-08-25T13:57:05.753Z,20.30
2022-08-25T13:59:40.742Z,15.30
2022-08-25T14:02:15.253Z,17.40
2022-08-25T14:04:52.675Z,19.17
2022-08-25T14:07:34.366Z,28.40
2022-08-25T14:10:10.490Z,27.42
2022-08-25T14:12:46.801Z,28.38
2022-08-25T14:18:06.619Z,38.60
2022-08-25T14:20:38.450Z,38.85
2022-08-25T14:23:18.763Z,31.95
2022-08-25T14:25:52.161Z,27.70
2022-08-25T14:28:34.040Z,29.55
2022-08-25T14:31:10.123Z,30.27
2022-08-25T14:33:44.584Z,34.58
2022-08-25T14:36:23.895Z,38.25
2022-08-25T14:38:55.250Z,33.67
2022-08-25T14:41:25.637Z,35.40
2022-08-25T14:43:55.714Z,39.50
2022-08-25T14:46:30.596Z,40.20
2022-08-25T14:49:02.312Z,43.97
2022-08-25T14:51:34.616Z,35.65
2022-08-25T14:54:09.715Z,34.00
2022-08-25T14:56:42.974Z,35.08
2022-08-25T14:59:12.611Z,40.40
2022-08-25T15:01:43.778Z,37.38
2022-08-25T15:04:16.001Z,35.33
2022-08-25T15:06:47.874Z,30.05
2022-08-25T15:09:18.615Z,34.35
2022-08-25T15:11:51.536Z,35.75
2022-08-25T15:14:28.850Z,29.35
2022-08-25T15:17:04.558Z,33.10
2022-08-25T15:19:36.893Z,31.83
2022-08-25T15:22:06.129Z,25.83
2022-08-25T15:24:37.943Z,33.92
2022-08-25T15:27:10.325Z,36.60
2022-08-25T15:29:40.889Z,27.77
2022-08-25T15:32:11.705Z,20.05
2022-08-25T15:34:40.894Z,26.98
2022-08-25T15:37:11.942Z,26.73
2022-08-25T15:39:41.967Z,25.05
2022-08-25T15:42:14.400Z,21.77
2022-08-25T15:44:53.274Z,23.35
2022-08-25T15:47:24.674Z,22.70
2022-08-25T15:50:05.518Z,27.80
2022-08-25T15:52:45.990Z,21.70
2022-08-25T15:55:16.813Z,23.00
2022-08-25T15:57:46.216Z,22.75
2022-08-25T16:00:16.982Z,22.80
2022-08-25T16:02:48.273Z,21.88
2022-08-25T16:05:17.978Z,22.40
2022-08-25T16:07:51.796Z,17.05
2022-08-25T16:10:21.868Z,20.45
2022-08-25T16:12:51.191Z,27.70
2022-08-25T16:15:23.813Z,26.10
2022-08-25T16:18:01.171Z,28.88
2022-08-25T16:20:31.116Z,23.13
2022-08-25T16:23:02.925Z,20.17
2022-08-25T16:25:33.394Z,18.55
2022-08-25T16:28:06.011Z,20.70
2022-08-25T16:30:35.170Z,21.58
2022-08-25T16:33:06.966Z,26.40
2022-08-25T16:35:40.642Z,25.25
2022-08-25T16:38:09.941Z,19.40
2022-08-25T16:40:42.725Z,17.08
2022-08-25T16:43:12.522Z,17.35
2022-08-25T16:45:41.857Z,18.15
2022-08-25T16:48:12.616Z,18.27
2022-08-25T16:50:41.866Z,17.00
2022-08-25T16:53:27.981Z,18.05
2022-08-25T16:56:03.234Z,22.52
2022-08-25T16:58:33.524Z,16.80
2022-08-25T17:01:09.566Z,23.35
2022-08-25T17:03:43.965Z,19.80
2022-08-25T17:06:15.227Z,20.50
2022-08-25T17:08:44.686Z,18.10
2022-08-25T17:11:15.689Z,20.13
2022-08-25T17:13:47.308Z,14.38
2022-08-25T17:16:20.232Z,15.48
2022-08-25T17:18:51.238Z,18.50
2022-08-25T17:21:24.822Z,16.20
2022-08-25T17:23:55.206Z,18.55
2022-08-25T17:26:27.721Z,16.48
2022-08-25T17:28:59.258Z,17.67
2022-08-25T17:31:30.844Z,15.82
2022-08-25T17:34:01.690Z,19.95
2022-08-25T17:36:31.798Z,26.83
2022-08-25T17:39:01.006Z,27.63
2022-08-25T17:41:30.539Z,24.15
2022-08-25T17:44:00.350Z,23.23
2022-08-25T17:46:29.580Z,21.23
2022-08-25T17:48:58.736Z,24.17
2022-08-25T17:51:31.824Z,28.27
2022-08-25T17:54:01.527Z,32.67
2022-08-25T17:56:30.785Z,29.75
2022-08-25T17:59:00.049Z,31.65
2022-08-25T18:01:31.617Z,42.45
2022-08-25T18:04:01.655Z,40.20
2022-08-25T18:06:32.749Z,28.77
2022-08-25T18:09:05.071Z,32.75
2022-08-25T18:11:34.385Z,31.38
2022-08-25T18:14:03.556Z,31.85
2022-08-25T18:16:32.771Z,27.40
2022-08-25T18:19:03.418Z,25.98
2022-08-25T18:21:37.324Z,24.73
2022-08-25T18:24:06.976Z,20.83
2022-08-25T18:26:36.330Z,25.38
2022-08-25T18:29:06.295Z,26.92
2022-08-25T18:31:35.506Z,22.65
2022-08-25T18:34:09.781Z,20.95
2022-08-25T18:36:40.810Z,21.17
2022-08-25T18:39:28.753Z,24.00
2022-08-25T18:42:02.614Z,19.20
2022-08-25T18:44:32.309Z,19.30
2022-08-25T18:47:07.466Z,17.27
2022-08-25T18:52:08.824Z,21.08
2022-08-25T18:54:40.322Z,22.08
2022-08-25T18:57:09.685Z,17.80
2022-08-25T18:59:42.464Z,18.00
2022-08-25T19:02:14.435Z,19.75
2022-08-25T19:04:44.329Z,25.00
2022-08-25T19:07:15.091Z,21.98
2022-08-25T19:09:44.288Z,19.27
2022-08-25T19:12:22.535Z,19.60
2022-08-25T19:14:52.152Z,17.80
2022-08-25T19:17:21.391Z,23.77
2022-08-25T19:19:54.015Z,14.48
2022-08-25T19:22:40.739Z,16.13
2022-08-25T19:25:11.665Z,16.08
2022-08-25T19:27:41.230Z,14.45
2022-08-25T19:30:12.869Z,14.02
2022-08-25T19:32:44.432Z,13.20
2022-08-25T19:35:19.022Z,14.63
2022-08-25T19:37:50.122Z,14.98
2022-08-25T19:40:21.335Z,15.98
2022-08-25T19:42:54.701Z,15.40
2022-08-25T19:45:25.483Z,15.48
2022-08-25T19:47:54.843Z,15.73
2022-08-25T19:50:25.092Z,16.17
2022-08-25T19:52:55.837Z,15.75
2022-08-25T19:55:25.309Z,13.07
2022-08-25T19:57:54.863Z,14.55
2022-08-25T20:00:27.896Z,17.67
2022-08-25T20:02:57.807Z,15.60
2022-08-25T20:05:27.043Z,17.00
2022-08-25T20:07:58.512Z,13.82
2022-08-25T20:10:29.918Z,11.48
2022-08-25T20:12:59.365Z,17.50
2022-08-25T20:15:34.572Z,14.15
2022-08-25T20:18:08.296Z,15.70
2022-08-25T20:20:37.510Z,16.20
2022-08-25T20:23:27.887Z,13.52
2022-08-25T20:25:57.195Z,12.95
2022-08-25T20:28:26.373Z,16.23
2022-08-25T20:30:57.204Z,14.60
2022-08-25T20:33:26.408Z,11.48
2022-08-25T20:35:55.994Z,17.17
2022-08-25T20:38:30.166Z,19.50
2022-08-25T20:40:59.640Z,14.32
2022-08-25T20:43:30.076Z,15.57
2022-08-25T20:46:02.996Z,14.45
2022-08-25T20:48:32.848Z,13.90
2022-08-25T20:51:06.890Z,11.38
2022-08-25T20:53:39.179Z,10.45
2022-08-25T20:56:10.426Z,12.43
2022-08-25T20:58:41.849Z,10.48
2022-08-25T21:01:12.032Z,11.38
2022-08-25T21:03:41.311Z,16.50
2022-08-25T21:06:13.059Z,14.27
2022-08-25T21:11:19.094Z,16.00
2022-08-25T21:13:48.317Z,11.73
2022-08-25T21:16:18.290Z,17.77
2022-08-25T21:18:48.678Z,14.13
2022-08-25T21:21:18.114Z,12.10
2022-08-25T21:23:51.495Z,13.20
2022-08-25T21:26:22.341Z,17.75
2022-08-25T21:28:51.789Z,23.88
2022-08-25T21:31:24.367Z,18.23
2022-08-25T21:33:54.994Z,12.73
2022-08-25T21:36:25.025Z,14.18
2022-08-25T21:38:56.099Z,14.85
2022-08-25T21:41:27.625Z,16.15
2022-08-25T21:43:57.135Z,13.98
2022-08-25T21:46:29.305Z,13.75
2022-08-25T21:49:01.832Z,12.07
2022-08-25T21:51:39.281Z,12.18
2022-08-25T21:54:17.367Z,14.13
2022-08-25T21:56:51.536Z,13.15
2022-08-25T21:59:24.474Z,12.80
2022-08-25T22:01:57.476Z,14.10
2022-08-25T22:04:28.306Z,10.57
2022-08-25T22:06:58.134Z,11.73
2022-08-25T22:09:30.288Z,11.57
2022-08-25T22:12:00.781Z,9.45
2022-08-25T22:14:29.953Z,6.78
2022-08-25T22:16:59.293Z,10.77
2022-08-25T22:19:28.929Z,11.35
2022-08-25T22:21:58.710Z,11.35
2022-08-25T22:24:29.419Z,9.60
2022-08-25T22:26:58.838Z,13.07
2022-08-25T22:29:30.587Z,8.50
2022-08-25T22:32:02.409Z,13.57
2022-08-25T22:34:34.861Z,11.15
2022-08-25T22:37:09.704Z,8.57
2022-08-25T22:39:40.664Z,14.75
2022-08-25T22:42:09.989Z,11.75
2022-08-25T22:44:40.536Z,8.75
2022-08-25T22:47:11.858Z,9.90
2022-08-25T22:49:41.798Z,9.40
2022-08-25T22:52:13.002Z,11.02
2022-08-25T22:54:44.656Z,15.57
2022-08-25T22:57:13.985Z,11.07
2022-08-25T22:59:43.184Z,11.32
2022-08-25T23:02:12.412Z,10.10
2022-08-25T23:04:43.476Z,7.68
2022-08-25T23:07:13.502Z,8.80
2022-08-25T23:09:44.655Z,11.27
2022-08-25T23:12:14.249Z,9.75
2022-08-25T23:14:44.421Z,14.27
2022-08-25T23:17:13.962Z,11.63
2022-08-25T23:19:43.086Z,16.52
2022-08-25T23:22:11.165Z,12.15
2022-08-25T23:24:42.817Z,11.30
2022-08-25T23:27:16.028Z,10.95
2022-08-25T23:29:49.174Z,11.07
2022-08-25T23:32:19.688Z,12.73
2022-08-25T23:34:48.924Z,14.73
2022-08-25T23:37:18.955Z,11.13
2022-08-25T23:39:50.133Z,12.02
2022-08-25T23:42:21.931Z,16.48
2022-08-25T23:44:51.868Z,14.55
2022-08-25T23:47:21.031Z,13.18
2022-08-25T23:49:50.484Z,16.60
2022-08-25T23:52:19.821Z,19.10
2022-08-25T23:54:49.278Z,21.40
2022-08-25T23:57:18.821Z,16.15
2022-08-25T23:59:49.567Z,16.83
